createdAt,value
2023-04-13T00:01:59.595Z,47.73
2023-04-13T00:07:05.059Z,47.70
2023-04-13T00:12:07.419Z,48.83
2023-04-13T00:17:10.151Z,49.16
2023-04-13T00:22:12.872Z,48.82
2023-04-13T00:27:15.048Z,48.52
2023-04-13T00:32:17.497Z,48.53
2023-04-13T00:37:20.465Z,48.52
2023-04-13T00:42:22.803Z,48.74
2023-04-13T00:47:29.090Z,48.76
2023-04-13T00:52:31.363Z,49.17
2023-04-13T00:57:34.532Z,50.13
2023-04-13T01:02:37.970Z,50.13
2023-04-13T01:07:51.865Z,49.58
2023-04-13T01:12:57.318Z,49.53
2023-04-13T01:18:07.624Z,49.35
2023-04-13T01:23:12.944Z,49.90
2023-04-13T01:28:19.813Z,51.40
2023-04-13T01:33:22.833Z,51.17
2023-04-13T01:38:25.668Z,50.86
2023-04-13T01:43:28.443Z,50.36
2023-04-13T01:48:37.867Z,49.81
2023-04-13T01:54:02.401Z,50.02
2023-04-13T01:59:05.446Z,50.26
2023-04-13T02:04:08.163Z,50.89
2023-04-13T02:09:11.435Z,50.73
2023-04-13T02:14:13.892Z,50.23
2023-04-13T02:19:16.068Z,50.11
2023-04-13T02:24:18.312Z,49.91
2023-04-13T02:29:20.477Z,49.60
2023-04-13T02:34:23.365Z,49.92
2023-04-13T02:39:25.591Z,50.14
2023-04-13T02:44:27.713Z,50.58
2023-04-13T02:49:29.952Z,50.32
2023-04-13T02:54:32.137Z,50.42
2023-04-13T02:59:34.311Z,50.44
2023-04-13T03:04:36.538Z,50.91
2023-04-13T03:09:39.990Z,51.10
2023-04-13T03:14:42.104Z,50.78
2023-04-13T03:19:48.095Z,50.47
2023-04-13T03:24:51.018Z,50.47
2023-04-13T03:29:53.190Z,50.05
2023-04-13T03:34:56.021Z,50.62
2023-04-13T03:39:59.147Z,50.34
2023-04-13T03:45:01.240Z,50.65
2023-04-13T03:50:04.149Z,50.13
2023-04-13T03:55:07.102Z,50.04
2023-04-13T04:00:14.358Z,50.51
2023-04-13T04:05:17.534Z,50.81
2023-04-13T04:10:20.046Z,51.77
2023-04-13T04:15:22.623Z,51.44
2023-04-13T04:20:25.023Z,51.97
2023-04-13T04:25:27.885Z,52.15
2023-04-13T04:30:30.687Z,51.80
2023-04-13T04:35:35.928Z,52.97
2023-04-13T04:40:38.377Z,51.85
2023-04-13T04:51:09.384Z,52.92
2023-04-13T04:56:11.468Z,53.90
2023-04-13T05:01:13.755Z,54.21
2023-04-13T05:06:16.153Z,53.25
2023-04-13T05:11:18.384Z,52.46
2023-04-13T05:16:20.556Z,52.52
2023-04-13T05:21:23.317Z,52.62
2023-04-13T05:26:25.820Z,52.54
2023-04-13T05:31:29.090Z,53.44
2023-04-13T05:36:32.570Z,53.08
2023-04-13T05:41:34.764Z,52.67
2023-04-13T05:46:37.028Z,52.13
2023-04-13T05:51:39.637Z,52.08
2023-04-13T05:56:41.837Z,51.74
2023-04-13T06:01:43.983Z,51.15
2023-04-13T06:06:46.796Z,50.52
2023-04-13T06:11:48.873Z,49.79
2023-04-13T06:16:52.925Z,49.07
2023-04-13T06:21:55.161Z,48.66
2023-04-13T06:26:58.610Z,48.58
2023-04-13T06:32:00.834Z,47.84
2023-04-13T06:37:06.345Z,47.84
2023-04-13T06:42:08.473Z,47.83
2023-04-13T06:47:10.762Z,47.62
2023-04-13T06:52:13.062Z,47.28
2023-04-13T06:57:15.125Z,46.95
2023-04-13T07:02:17.857Z,47.54
2023-04-13T07:07:20.593Z,47.42
2023-04-13T07:12:22.721Z,47.13
2023-04-13T07:17:25.204Z,47.20
2023-04-13T07:22:32.758Z,46.86
2023-04-13T07:27:34.981Z,47.14
2023-04-13T07:32:37.386Z,47.13
2023-04-13T07:37:39.868Z,46.48
2023-04-13T07:42:42.386Z,45.79
2023-04-13T07:47:44.545Z,45.73
2023-04-13T07:52:46.760Z,45.68
2023-04-13T07:57:49.168Z,45.35
2023-04-13T08:02:51.983Z,44.55
2023-04-13T08:07:54.361Z,44.61
2023-04-13T08:12:56.863Z,44.10
2023-04-13T08:18:00.117Z,43.75
2023-04-13T08:23:02.375Z,43.39
2023-04-13T08:28:05.469Z,43.70
2023-04-13T08:33:08.100Z,43.52
2023-04-13T08:38:10.572Z,43.36
2023-04-13T08:43:13.689Z,43.22
2023-04-13T08:48:19.660Z,41.75
2023-04-13T08:53:22.061Z,41.12
2023-04-13T08:58:26.202Z,40.03
2023-04-13T09:03:34.253Z,40.13
2023-04-13T09:08:37.040Z,39.48
2023-04-13T09:13:39.245Z,39.20
2023-04-13T09:18:54.397Z,38.07
2023-04-13T09:23:59.403Z,37.64
2023-04-13T09:29:03.565Z,37.30
2023-04-13T09:34:06.655Z,37.49
2023-04-13T09:39:08.845Z,37.38
2023-04-13T09:44:18.240Z,37.35
2023-04-13T09:49:20.615Z,38.02
2023-04-13T09:54:23.231Z,37.40
2023-04-13T09:59:30.161Z,36.26
2023-04-13T10:04:35.072Z,34.95
2023-04-13T10:09:37.412Z,34.23
2023-04-13T10:14:43.956Z,34.48
2023-04-13T10:19:51.746Z,33.21
2023-04-13T10:24:53.902Z,32.49
2023-04-13T10:29:56.566Z,32.65
2023-04-13T10:35:16.604Z,32.89
2023-04-13T10:40:18.840Z,32.39
2023-04-13T10:45:26.676Z,32.41
2023-04-13T10:50:29.014Z,32.07
2023-04-13T10:55:35.639Z,32.94
2023-04-13T11:00:46.131Z,33.18
2023-04-13T11:06:00.303Z,32.40
2023-04-13T11:11:02.502Z,31.97
2023-04-13T11:16:06.059Z,31.79
2023-04-13T11:21:18.188Z,31.16
2023-04-13T11:26:32.031Z,30.79
2023-04-13T11:31:42.435Z,29.95
2023-04-13T11:36:49.244Z,30.08
2023-04-13T11:41:52.036Z,29.98
2023-04-13T11:46:54.404Z,30.22
2023-04-13T11:51:57.140Z,30.13
2023-04-13T11:56:59.310Z,30.21
2023-04-13T12:02:05.330Z,30.63
2023-04-13T12:07:14.126Z,30.37
2023-04-13T12:12:50.783Z,30.26
2023-04-13T12:17:48.646Z,30.88
2023-04-13T12:23:00.171Z,30.49
2023-04-13T12:28:05.256Z,30.42
2023-04-13T12:33:07.569Z,30.44
2023-04-13T12:38:09.801Z,31.30
2023-04-13T12:43:11.949Z,31.38
2023-04-13T12:48:14.130Z,31.10
2023-04-13T12:53:16.628Z,30.40
2023-04-13T12:58:18.964Z,30.10
2023-04-13T13:03:21.788Z,29.92
2023-04-13T13:08:24.052Z,29.41
2023-04-13T13:13:26.108Z,29.81
2023-04-13T13:18:38.418Z,28.66
2023-04-13T13:23:49.218Z,28.81
2023-04-13T13:28:52.406Z,28.23
2023-04-13T13:33:57.588Z,27.91
2023-04-13T13:39:00.438Z,27.16
2023-04-13T13:44:02.774Z,27.00
2023-04-13T13:49:05.657Z,26.53
2023-04-13T13:54:07.958Z,25.95
2023-04-13T13:59:10.113Z,25.24
2023-04-13T14:04:13.289Z,24.46
2023-04-13T14:09:15.483Z,24.40
2023-04-13T14:14:21.984Z,24.96
2023-04-13T14:19:25.039Z,24.68
2023-04-13T14:24:27.552Z,23.99
2023-04-13T14:29:29.862Z,24.35
2023-04-13T14:34:32.008Z,24.08
2023-04-13T14:39:34.541Z,23.60
2023-04-13T14:44:37.070Z,23.62
2023-04-13T14:49:39.348Z,22.86
2023-04-13T14:54:42.153Z,22.43
2023-04-13T14:59:45.264Z,22.06
2023-04-13T15:04:48.518Z,21.08
2023-04-13T15:09:50.805Z,20.01
2023-04-13T15:14:53.128Z,19.31
2023-04-13T15:19:55.503Z,18.27
2023-04-13T15:24:57.646Z,17.93
2023-04-13T15:30:00.642Z,17.37
2023-04-13T15:35:03.248Z,16.93
2023-04-13T15:40:08.028Z,16.56
2023-04-13T15:45:10.763Z,16.62
2023-04-13T15:50:13.777Z,16.93
2023-04-13T15:55:15.996Z,17.13
2023-04-13T16:00:18.698Z,17.46
2023-04-13T16:05:21.471Z,17.32
2023-04-13T16:10:23.749Z,17.87
2023-04-13T16:15:26.630Z,18.23
2023-04-13T16:20:29.057Z,19.05
2023-04-13T16:25:31.897Z,19.91
2023-04-13T16:30:34.190Z,21.90
2023-04-13T16:35:37.087Z,23.35
2023-04-13T16:40:39.547Z,24.23
2023-04-13T16:45:42.547Z,24.97
2023-04-13T16:50:44.759Z,26.60
2023-04-13T16:55:51.216Z,27.54
2023-04-13T17:00:54.055Z,28.72
2023-04-13T17:05:56.719Z,29.42
2023-04-13T17:10:59.516Z,30.17
2023-04-13T17:16:02.069Z,31.34
2023-04-13T17:21:04.717Z,31.78
2023-04-13T17:26:07.082Z,32.21
2023-04-13T17:31:09.530Z,32.83
2023-04-13T17:36:11.977Z,33.22
2023-04-13T17:41:14.317Z,33.67
2023-04-13T17:46:16.605Z,33.90
2023-04-13T17:51:18.978Z,34.33
2023-04-13T17:56:21.168Z,34.67
2023-04-13T18:01:26.046Z,34.59
2023-04-13T18:06:28.592Z,34.83
2023-04-13T18:11:31.075Z,35.17
2023-04-13T18:16:33.499Z,35.55
2023-04-13T18:21:37.399Z,35.77
2023-04-13T18:26:40.053Z,35.95
2023-04-13T18:31:42.528Z,35.97
2023-04-13T18:36:45.005Z,36.33
2023-04-13T18:41:47.694Z,36.70
2023-04-13T18:46:49.909Z,36.75
2023-04-13T18:51:52.180Z,36.95
2023-04-13T18:56:54.678Z,37.07
2023-04-13T19:01:57.110Z,37.57
2023-04-13T19:06:59.333Z,38.00
2023-04-13T19:12:03.134Z,38.08
2023-04-13T19:17:06.043Z,38.28
2023-04-13T19:22:08.291Z,38.49
2023-04-13T19:27:10.702Z,38.80
2023-04-13T19:32:13.298Z,39.09
2023-04-13T19:37:16.820Z,39.62
2023-04-13T19:42:19.136Z,39.99
2023-04-13T19:47:21.544Z,40.65
2023-04-13T19:52:23.851Z,40.71
2023-04-13T19:57:26.292Z,40.90
2023-04-13T20:02:28.993Z,41.34
2023-04-13T20:07:31.405Z,42.02
2023-04-13T20:12:34.238Z,42.54
2023-04-13T20:17:36.639Z,43.16
2023-04-13T20:22:39.329Z,43.09
2023-04-13T20:27:42.354Z,43.68
2023-04-13T20:32:44.953Z,44.10
2023-04-13T20:37:47.385Z,44.44
2023-04-13T20:42:49.660Z,44.38
2023-04-13T20:47:57.371Z,45.06
2023-04-13T20:53:00.122Z,45.50
2023-04-13T20:58:02.719Z,46.00
2023-04-13T21:03:05.482Z,46.20
2023-04-13T21:08:08.075Z,46.07
2023-04-13T21:13:11.224Z,45.93
2023-04-13T21:18:13.399Z,46.03
2023-04-13T21:23:16.857Z,46.47
2023-04-13T21:28:19.120Z,46.42
2023-04-13T21:33:21.770Z,49.10
2023-04-13T21:38:24.023Z,48.84
2023-04-13T21:43:26.573Z,48.21
2023-04-13T21:48:28.809Z,47.72
2023-04-13T21:53:31.270Z,47.39
2023-04-13T21:58:41.732Z,47.43
2023-04-13T22:03:47.286Z,48.07
2023-04-13T22:08:49.821Z,47.85
2023-04-13T22:13:52.099Z,47.67
2023-04-13T22:18:54.303Z,47.53
2023-04-13T22:23:56.654Z,47.69
2023-04-13T22:28:59.337Z,47.64
2023-04-13T22:34:02.067Z,47.41
2023-04-13T22:39:04.380Z,47.42
2023-04-13T22:44:06.716Z,47.23
2023-04-13T22:49:10.344Z,47.20
2023-04-13T22:54:12.680Z,47.08
2023-04-13T22:59:16.794Z,47.88
2023-04-13T23:04:19.294Z,47.71
2023-04-13T23:09:21.643Z,47.91
2023-04-13T23:14:24.101Z,47.74
2023-04-13T23:19:26.585Z,47.69
2023-04-13T23:24:29.061Z,47.92
2023-04-13T23:29:31.515Z,47.92
2023-04-13T23:34:33.729Z,48.06
2023-04-13T23:39:35.976Z,48.13
2023-04-13T23:44:38.188Z,48.39
2023-04-13T23:49:40.511Z,49.26
2023-04-13T23:54:42.685Z,49.31
2023-04-13T23:59:45.138Z,49.32
